createdAt,value
2024-01-11T00:01:40.009Z,39.40
2024-01-11T00:04:07.800Z,35.85
2024-01-11T00:06:41.925Z,37.65
2024-01-11T00:09:09.860Z,38.75
2024-01-11T00:11:38.176Z,35.17
2024-01-11T00:14:06.109Z,37.30
2024-01-11T00:16:35.955Z,37.45
2024-01-11T00:19:03.851Z,31.48
2024-01-11T00:21:31.868Z,32.20
2024-01-11T00:24:00.103Z,31.45
2024-01-11T00:26:27.975Z,26.67
2024-01-11T00:28:56.116Z,37.13
2024-01-11T00:31:23.965Z,28.30
2024-01-11T00:33:53.275Z,33.47
2024-01-11T00:36:21.599Z,33.95
2024-01-11T00:38:49.417Z,30.00
2024-01-11T00:41:17.718Z,30.20
2024-01-11T00:43:45.530Z,30.77
2024-01-11T00:46:13.380Z,33.00
2024-01-11T00:48:41.262Z,32.03
2024-01-11T00:51:12.950Z,33.47
2024-01-11T00:53:40.951Z,33.20
2024-01-11T00:56:16.771Z,35.25
2024-01-11T00:58:44.619Z,33.05
2024-01-11T01:01:12.792Z,38.03
2024-01-11T01:03:41.221Z,32.25
2024-01-11T01:06:13.128Z,36.00
2024-01-11T01:08:41.084Z,36.15
2024-01-11T01:11:08.928Z,39.08
2024-01-11T01:13:36.756Z,36.90
2024-01-11T01:16:05.208Z,36.45
2024-01-11T01:18:33.078Z,32.22
2024-01-11T01:21:01.009Z,36.08
2024-01-11T01:23:30.190Z,34.75
2024-01-11T01:26:00.462Z,28.63
2024-01-11T01:28:28.494Z,29.17
2024-01-11T01:30:56.431Z,34.70
2024-01-11T01:33:24.481Z,37.00
2024-01-11T01:35:52.455Z,29.60
2024-01-11T01:38:20.260Z,27.35
2024-01-11T01:40:49.495Z,30.25
2024-01-11T01:43:17.721Z,33.47
2024-01-11T01:45:45.599Z,30.58
2024-01-11T01:48:16.394Z,25.13
2024-01-11T01:50:46.817Z,37.45
2024-01-11T01:53:16.129Z,25.85
2024-01-11T01:55:44.022Z,27.40
2024-01-11T01:58:13.977Z,31.67
2024-01-11T02:00:42.939Z,34.33
2024-01-11T02:03:10.879Z,25.50
2024-01-11T02:05:39.572Z,26.65
2024-01-11T02:08:09.748Z,27.92
2024-01-11T02:10:37.855Z,31.10
2024-01-11T02:13:09.039Z,34.05
2024-01-11T02:15:40.069Z,31.90
2024-01-11T02:18:08.199Z,30.88
2024-01-11T02:20:36.438Z,28.25
2024-01-11T02:23:07.672Z,31.40
2024-01-11T02:25:37.057Z,25.88
2024-01-11T02:28:05.173Z,29.65
2024-01-11T02:30:33.112Z,29.58
2024-01-11T02:33:02.492Z,29.77
2024-01-11T02:35:31.379Z,31.88
2024-01-11T02:38:00.745Z,29.17
2024-01-11T02:40:30.449Z,30.58
2024-01-11T02:42:59.679Z,25.90
2024-01-11T02:45:27.417Z,30.58
2024-01-11T02:47:57.263Z,35.75
2024-01-11T02:50:25.238Z,27.65
2024-01-11T02:52:53.092Z,32.90
2024-01-11T02:55:20.964Z,32.42
2024-01-11T02:57:49.093Z,25.58
2024-01-11T03:00:18.506Z,25.55
2024-01-11T03:02:46.345Z,26.35
2024-01-11T03:05:14.405Z,27.73
2024-01-11T03:07:42.294Z,29.95
2024-01-11T03:10:10.371Z,32.13
2024-01-11T03:12:38.256Z,34.55
2024-01-11T03:15:06.712Z,35.97
2024-01-11T03:17:36.035Z,30.25
2024-01-11T03:20:05.881Z,33.13
2024-01-11T03:22:33.933Z,33.83
2024-01-11T03:25:04.731Z,29.35
2024-01-11T03:27:33.011Z,32.60
2024-01-11T03:30:00.753Z,29.25
2024-01-11T03:32:29.188Z,28.42
2024-01-11T03:34:58.588Z,30.20
2024-01-11T03:37:26.836Z,30.30
2024-01-11T03:39:54.589Z,29.13
2024-01-11T03:42:22.652Z,29.85
2024-01-11T03:44:50.468Z,28.85
2024-01-11T03:47:18.521Z,28.83
2024-01-11T03:49:46.388Z,24.83
2024-01-11T03:52:15.558Z,23.85
2024-01-11T03:54:43.421Z,26.77
2024-01-11T03:57:11.331Z,30.52
2024-01-11T03:59:39.193Z,25.23
2024-01-11T04:02:08.161Z,29.88
2024-01-11T04:04:36.062Z,25.77
2024-01-11T04:07:04.057Z,29.38
2024-01-11T04:09:33.282Z,26.65
2024-01-11T04:12:01.230Z,24.83
2024-01-11T04:14:29.007Z,24.73
2024-01-11T04:16:56.915Z,24.95
2024-01-11T04:19:24.864Z,29.63
2024-01-11T04:21:52.748Z,24.90
2024-01-11T04:24:21.116Z,25.08
2024-01-11T04:26:50.219Z,26.27
2024-01-11T04:29:18.465Z,22.67
2024-01-11T04:31:46.319Z,27.63
2024-01-11T04:34:14.168Z,27.77
2024-01-11T04:36:42.033Z,25.40
2024-01-11T04:39:09.855Z,28.85
2024-01-11T04:41:38.362Z,26.70
2024-01-11T04:44:07.603Z,32.03
2024-01-11T04:46:36.010Z,31.48
2024-01-11T04:49:03.921Z,27.00
2024-01-11T04:51:31.695Z,28.10
2024-01-11T04:53:59.479Z,28.42
2024-01-11T04:56:27.377Z,32.22
2024-01-11T04:58:55.241Z,33.30
2024-01-11T05:01:26.050Z,27.45
2024-01-11T05:03:55.285Z,28.15
2024-01-11T05:06:23.618Z,25.20
2024-01-11T05:08:55.813Z,28.55
2024-01-11T05:11:27.844Z,29.50
2024-01-11T05:13:55.995Z,28.60
2024-01-11T05:16:26.411Z,30.25
2024-01-11T05:18:55.795Z,25.05
2024-01-11T05:21:24.073Z,27.15
2024-01-11T05:23:52.311Z,30.55
2024-01-11T05:26:21.472Z,32.10
2024-01-11T05:28:49.759Z,31.65
2024-01-11T05:31:18.685Z,32.90
2024-01-11T05:33:49.064Z,28.90
2024-01-11T05:36:17.249Z,29.13
2024-01-11T05:38:48.645Z,27.05
2024-01-11T05:41:16.620Z,28.00
2024-01-11T05:43:45.227Z,26.58
2024-01-11T05:46:13.032Z,34.58
2024-01-11T05:48:41.227Z,30.13
2024-01-11T05:51:10.790Z,35.47
2024-01-11T05:53:39.137Z,28.20
2024-01-11T05:56:11.303Z,32.28
2024-01-11T05:58:40.742Z,33.08
2024-01-11T06:01:08.721Z,28.75
2024-01-11T06:03:38.623Z,39.28
2024-01-11T06:06:07.001Z,39.00
2024-01-11T06:08:36.499Z,31.15
2024-01-11T06:11:05.384Z,30.00
2024-01-11T06:13:33.383Z,34.53
2024-01-11T06:16:01.333Z,30.17
2024-01-11T06:18:29.368Z,29.35
2024-01-11T06:20:57.212Z,29.17
2024-01-11T06:23:26.789Z,31.48
2024-01-11T06:25:56.169Z,27.17
2024-01-11T06:28:24.045Z,25.65
2024-01-11T06:30:51.866Z,27.15
2024-01-11T06:33:19.971Z,25.23
2024-01-11T06:35:47.865Z,22.98
2024-01-11T06:38:15.819Z,23.23
2024-01-11T06:40:44.705Z,24.92
2024-01-11T06:43:13.870Z,25.95
2024-01-11T06:45:41.850Z,30.65
2024-01-11T06:48:09.905Z,27.67
2024-01-11T06:50:37.951Z,27.67
2024-01-11T06:53:05.920Z,28.55
2024-01-11T06:55:33.767Z,29.83
2024-01-11T06:58:03.015Z,31.65
2024-01-11T07:00:32.261Z,28.77
2024-01-11T07:03:00.081Z,28.60
2024-01-11T07:05:27.883Z,30.00
2024-01-11T07:07:55.859Z,34.72
2024-01-11T07:10:23.609Z,29.95
2024-01-11T07:12:51.596Z,29.70
2024-01-11T07:15:19.569Z,24.95
2024-01-11T07:17:48.997Z,30.42
2024-01-11T07:20:18.498Z,34.28
2024-01-11T07:22:46.256Z,31.77
2024-01-11T07:25:17.630Z,32.80
2024-01-11T07:27:45.809Z,30.27
2024-01-11T07:30:14.177Z,29.88
2024-01-11T07:32:42.196Z,32.33
2024-01-11T07:35:15.162Z,33.28
2024-01-11T07:37:45.402Z,29.27
2024-01-11T07:40:14.761Z,26.60
2024-01-11T07:42:43.805Z,31.02
2024-01-11T07:45:11.679Z,29.48
2024-01-11T07:47:40.360Z,32.70
2024-01-11T07:50:10.950Z,27.90
2024-01-11T07:52:44.072Z,28.45
2024-01-11T07:55:13.870Z,33.00
2024-01-11T07:57:42.337Z,14.10
2024-01-11T08:00:10.612Z,22.50
2024-01-11T08:02:41.808Z,32.88
2024-01-11T08:05:10.179Z,25.27
2024-01-11T08:07:38.133Z,32.63
2024-01-11T08:10:10.298Z,30.00
2024-01-11T08:12:38.748Z,30.48
2024-01-11T08:15:07.099Z,29.55
2024-01-11T08:17:38.685Z,32.97
2024-01-11T08:20:10.311Z,33.90
2024-01-11T08:22:39.013Z,35.40
2024-01-11T08:25:10.275Z,27.30
2024-01-11T08:27:38.201Z,22.13
2024-01-11T08:30:07.202Z,23.63
2024-01-11T08:32:40.591Z,29.88
2024-01-11T08:35:11.887Z,33.90
2024-01-11T08:37:42.463Z,39.85
2024-01-11T08:40:12.531Z,38.63
2024-01-11T08:42:42.287Z,31.52
2024-01-11T08:45:10.851Z,30.70
2024-01-11T08:47:39.739Z,32.47
2024-01-11T08:50:08.729Z,30.02
2024-01-11T08:52:40.411Z,32.90
2024-01-11T08:55:08.988Z,39.08
2024-01-11T08:57:41.155Z,31.15
2024-01-11T09:00:09.832Z,29.42
2024-01-11T09:02:37.715Z,30.70
2024-01-11T09:05:09.376Z,28.60
2024-01-11T09:07:38.578Z,26.58
2024-01-11T09:10:09.795Z,27.50
2024-01-11T09:12:39.543Z,27.40
2024-01-11T09:15:08.179Z,30.73
2024-01-11T09:17:39.161Z,29.08
2024-01-11T09:20:07.786Z,28.10
2024-01-11T09:22:35.875Z,28.25
2024-01-11T09:25:04.110Z,29.85
2024-01-11T09:27:31.882Z,30.27
2024-01-11T09:30:01.251Z,30.45
2024-01-11T09:32:29.287Z,29.30
2024-01-11T09:34:57.309Z,28.40
2024-01-11T09:37:25.099Z,28.15
2024-01-11T09:39:53.066Z,22.90
2024-01-11T09:42:20.849Z,18.30
2024-01-11T09:44:49.514Z,30.45
2024-01-11T09:47:20.240Z,22.65
2024-01-11T09:49:51.902Z,24.42
2024-01-11T09:52:21.191Z,22.88
2024-01-11T09:54:49.190Z,26.10
2024-01-11T09:57:25.289Z,28.13
2024-01-11T09:59:57.087Z,26.38
2024-01-11T10:02:29.893Z,25.25
2024-01-11T10:04:57.784Z,26.08
2024-01-11T10:07:26.382Z,25.05
2024-01-11T10:09:54.810Z,22.45
2024-01-11T10:12:26.003Z,23.73
2024-01-11T10:14:54.513Z,22.38
2024-01-11T10:17:25.194Z,22.65
2024-01-11T10:19:56.365Z,21.25
2024-01-11T10:22:26.978Z,21.17
2024-01-11T10:25:09.487Z,25.55
2024-01-11T10:27:39.558Z,20.00
2024-01-11T10:30:08.930Z,19.55
2024-01-11T10:32:37.058Z,22.27
2024-01-11T10:35:06.867Z,21.40
2024-01-11T10:37:36.402Z,19.98
2024-01-11T10:40:12.226Z,20.50
2024-01-11T10:42:43.266Z,20.88
2024-01-11T10:45:16.372Z,21.00
2024-01-11T10:47:53.015Z,20.52
2024-01-11T10:50:24.242Z,22.63
2024-01-11T10:53:13.642Z,23.70
2024-01-11T10:55:43.326Z,23.38
2024-01-11T10:58:12.563Z,21.02
2024-01-11T11:00:40.420Z,20.50
2024-01-11T11:03:10.239Z,18.65
2024-01-11T11:05:40.957Z,21.08
2024-01-11T11:08:10.855Z,21.88
2024-01-11T11:10:41.692Z,17.40
2024-01-11T11:13:10.832Z,23.05
2024-01-11T11:15:40.351Z,18.52
2024-01-11T11:18:08.799Z,18.98
2024-01-11T11:20:37.124Z,23.00
2024-01-11T11:23:07.734Z,22.48
2024-01-11T11:25:35.896Z,25.50
2024-01-11T11:28:06.248Z,25.52
2024-01-11T11:30:39.498Z,25.95
2024-01-11T11:33:11.673Z,28.33
2024-01-11T11:35:40.181Z,22.25
2024-01-11T11:38:18.007Z,21.27
2024-01-11T11:40:47.730Z,28.15
2024-01-11T11:43:17.708Z,25.48
2024-01-11T11:45:48.566Z,28.20
2024-01-11T11:48:49.163Z,20.67
2024-01-11T11:51:20.566Z,23.58
2024-01-11T11:53:52.115Z,24.83
2024-01-11T11:56:21.512Z,25.85
2024-01-11T11:58:54.447Z,30.05
2024-01-11T12:01:22.407Z,26.70
2024-01-11T12:03:50.574Z,27.20
2024-01-11T12:06:20.853Z,28.30
2024-01-11T12:08:53.700Z,24.05
2024-01-11T12:11:23.377Z,24.25
2024-01-11T12:13:51.586Z,28.40
2024-01-11T12:16:20.461Z,31.27
2024-01-11T12:18:50.534Z,25.13
2024-01-11T12:21:18.633Z,35.50
2024-01-11T12:23:46.512Z,30.70
2024-01-11T12:26:23.397Z,25.02
2024-01-11T12:28:52.764Z,26.38
2024-01-11T12:31:22.803Z,23.65
2024-01-11T12:33:54.062Z,27.45
2024-01-11T12:36:22.109Z,26.92
2024-01-11T12:38:52.833Z,27.98
2024-01-11T12:41:25.352Z,25.48
2024-01-11T12:43:54.553Z,26.38
2024-01-11T12:46:22.584Z,28.40
2024-01-11T12:48:51.606Z,35.58
2024-01-11T12:51:23.224Z,34.95
2024-01-11T12:53:53.125Z,30.20
2024-01-11T12:56:23.216Z,22.40
2024-01-11T12:58:52.824Z,26.20
2024-01-11T13:01:24.478Z,21.52
2024-01-11T13:03:53.821Z,25.58
2024-01-11T13:06:22.168Z,23.50
2024-01-11T13:08:50.186Z,32.75
2024-01-11T13:11:18.990Z,25.15
2024-01-11T13:13:48.999Z,31.90
2024-01-11T13:16:20.221Z,29.88
2024-01-11T13:18:48.646Z,21.17
2024-01-11T13:21:17.485Z,24.63
2024-01-11T13:23:45.898Z,25.83
2024-01-11T13:26:13.910Z,25.65
2024-01-11T13:28:41.951Z,26.65
2024-01-11T13:31:11.092Z,27.30
2024-01-11T13:33:40.703Z,24.02
2024-01-11T13:36:08.799Z,21.15
2024-01-11T13:38:37.194Z,24.95
2024-01-11T13:41:06.711Z,21.80
2024-01-11T13:43:41.819Z,20.50
2024-01-11T13:46:10.149Z,22.10
2024-01-11T13:48:44.408Z,21.80
2024-01-11T13:51:16.464Z,22.27
2024-01-11T13:53:44.486Z,20.25
2024-01-11T13:56:12.426Z,23.40
2024-01-11T13:58:40.410Z,24.25
2024-01-11T14:01:08.861Z,33.38
2024-01-11T14:03:36.759Z,24.83
2024-01-11T14:06:35.004Z,27.25
2024-01-11T14:09:05.750Z,28.20
2024-01-11T14:11:36.158Z,20.85
2024-01-11T14:14:04.105Z,22.52
2024-01-11T14:16:34.367Z,22.50
2024-01-11T14:19:02.650Z,22.45
2024-01-11T14:21:30.657Z,22.33
2024-01-11T14:23:59.847Z,20.98
2024-01-11T14:26:27.764Z,17.25
2024-01-11T14:28:55.654Z,18.10
2024-01-11T14:31:24.048Z,24.85
2024-01-11T14:33:52.058Z,23.83
2024-01-11T14:36:20.035Z,20.60
2024-01-11T14:38:47.965Z,16.08
2024-01-11T14:41:17.535Z,15.32
2024-01-11T14:43:47.361Z,16.52
2024-01-11T14:46:15.264Z,13.85
2024-01-11T14:48:43.227Z,20.67
2024-01-11T14:51:11.562Z,20.52
2024-01-11T14:53:39.366Z,18.40
2024-01-11T14:56:07.653Z,16.10
2024-01-11T14:58:36.871Z,15.23
2024-01-11T15:01:05.127Z,12.45
2024-01-11T15:03:33.010Z,13.27
2024-01-11T15:06:00.992Z,14.18
2024-01-11T15:08:29.214Z,14.10
2024-01-11T15:10:57.082Z,12.43
2024-01-11T15:13:25.112Z,14.25
2024-01-11T15:15:54.424Z,13.13
2024-01-11T15:18:22.370Z,15.80
2024-01-11T15:20:52.251Z,22.30
2024-01-11T15:23:20.344Z,20.75
2024-01-11T15:25:48.233Z,21.05
2024-01-11T15:28:16.032Z,18.77
2024-01-11T15:30:44.025Z,13.98
2024-01-11T15:33:14.278Z,15.45
2024-01-11T15:35:42.414Z,18.25
2024-01-11T15:38:10.234Z,15.45
2024-01-11T15:40:38.225Z,17.08
2024-01-11T15:43:07.816Z,16.30
2024-01-11T15:45:37.563Z,14.52
2024-01-11T15:48:06.447Z,14.55
2024-01-11T15:50:36.279Z,25.73
2024-01-11T15:53:04.756Z,29.02
2024-01-11T15:55:32.564Z,18.88
2024-01-11T15:58:02.848Z,18.90
2024-01-11T16:00:32.105Z,20.02
2024-01-11T16:02:59.964Z,16.38
2024-01-11T16:05:27.911Z,16.33
2024-01-11T16:07:57.665Z,19.20
2024-01-11T16:10:25.481Z,16.05
2024-01-11T16:12:53.479Z,15.50
2024-01-11T16:15:21.668Z,20.23
2024-01-11T16:17:49.644Z,23.33
2024-01-11T16:20:18.567Z,20.92
2024-01-11T16:22:46.452Z,21.08
2024-01-11T16:25:17.297Z,19.10
2024-01-11T16:27:45.289Z,21.17
2024-01-11T16:30:13.637Z,17.52
2024-01-11T16:32:42.129Z,27.77
2024-01-11T16:35:10.228Z,21.00
2024-01-11T16:37:38.097Z,36.53
2024-01-11T16:40:07.470Z,34.78
2024-01-11T16:42:37.683Z,28.38
2024-01-11T16:45:06.869Z,30.10
2024-01-11T16:47:37.550Z,20.60
2024-01-11T16:50:08.338Z,19.92
2024-01-11T16:52:38.941Z,16.65
2024-01-11T16:55:07.414Z,15.50
2024-01-11T16:57:37.708Z,23.92
2024-01-11T17:00:09.317Z,19.05
2024-01-11T17:02:37.381Z,20.23
2024-01-11T17:05:06.011Z,16.23
2024-01-11T17:07:34.358Z,17.17
2024-01-11T17:10:03.185Z,41.33
2024-01-11T17:12:31.037Z,26.48
2024-01-11T17:15:00.921Z,25.88
2024-01-11T17:17:35.091Z,22.90
2024-01-11T17:20:03.508Z,22.83
2024-01-11T17:22:32.349Z,21.27
2024-01-11T17:25:00.513Z,25.65
2024-01-11T17:27:31.510Z,26.00
2024-01-11T17:30:01.481Z,21.58
2024-01-11T17:32:35.723Z,24.48
2024-01-11T17:35:05.013Z,35.20
2024-01-11T17:37:36.430Z,26.92
2024-01-11T17:40:04.801Z,25.48
2024-01-11T17:42:32.700Z,26.83
2024-01-11T17:45:13.842Z,21.80
2024-01-11T17:47:45.490Z,28.52
2024-01-11T17:50:21.573Z,27.10
2024-01-11T17:52:51.516Z,28.80
2024-01-11T17:55:20.198Z,25.52
2024-01-11T17:57:50.426Z,24.52
2024-01-11T18:00:20.720Z,27.02
2024-01-11T18:02:48.572Z,32.25
2024-01-11T18:05:17.149Z,31.90
2024-01-11T18:07:45.015Z,31.95
2024-01-11T18:10:13.035Z,31.90
2024-01-11T18:12:40.814Z,27.30
2024-01-11T18:15:14.293Z,23.33
2024-01-11T18:17:43.639Z,26.00
2024-01-11T18:20:11.948Z,45.65
2024-01-11T18:22:41.121Z,29.10
2024-01-11T18:25:09.972Z,27.25
2024-01-11T18:27:37.860Z,31.00
2024-01-11T18:30:08.079Z,26.75
2024-01-11T18:32:36.097Z,36.75
2024-01-11T18:35:07.924Z,51.70
2024-01-11T18:37:36.020Z,35.22
2024-01-11T18:40:05.854Z,25.50
2024-01-11T18:42:33.749Z,24.35
2024-01-11T18:45:01.717Z,27.00
2024-01-11T18:47:32.649Z,24.45
2024-01-11T18:50:02.779Z,20.63
2024-01-11T18:52:32.052Z,23.85
2024-01-11T18:55:08.280Z,19.80
2024-01-11T18:57:44.254Z,20.80
2024-01-11T19:00:12.550Z,21.20
2024-01-11T19:02:40.528Z,21.15
2024-01-11T19:05:09.197Z,23.58
2024-01-11T19:07:38.880Z,24.73
2024-01-11T19:10:08.075Z,19.17
2024-01-11T19:12:36.016Z,21.05
2024-01-11T19:15:05.821Z,26.75
2024-01-11T19:17:33.807Z,18.83
2024-01-11T19:20:01.983Z,17.33
2024-01-11T19:22:29.824Z,13.13
2024-01-11T19:24:59.608Z,20.38
2024-01-11T19:27:27.601Z,20.75
2024-01-11T19:29:55.600Z,18.92
2024-01-11T19:32:24.041Z,19.40
2024-01-11T19:34:54.599Z,17.05
2024-01-11T19:37:23.175Z,17.48
2024-01-11T19:39:51.237Z,15.57
2024-01-11T19:42:20.443Z,19.77
2024-01-11T19:44:48.309Z,19.92
2024-01-11T19:47:16.515Z,21.40
2024-01-11T19:49:44.453Z,20.08
2024-01-11T19:52:12.253Z,17.80
2024-01-11T19:54:40.123Z,22.58
2024-01-11T19:57:08.016Z,18.70
2024-01-11T19:59:37.305Z,21.15
2024-01-11T20:02:05.284Z,17.27
2024-01-11T20:04:34.174Z,18.88
2024-01-11T20:07:03.285Z,20.63
2024-01-11T20:09:31.292Z,30.60
2024-01-11T20:11:59.120Z,26.90
2024-01-11T20:14:28.250Z,22.55
2024-01-11T20:16:57.680Z,30.00
2024-01-11T20:19:25.715Z,28.25
2024-01-11T20:21:53.546Z,34.72
2024-01-11T20:24:21.378Z,32.90
2024-01-11T20:26:49.390Z,32.95
2024-01-11T20:29:17.979Z,31.02
2024-01-11T20:31:45.864Z,43.33
2024-01-11T20:34:15.322Z,28.67
2024-01-11T20:36:43.438Z,26.85
2024-01-11T20:39:11.935Z,29.02
2024-01-11T20:41:44.335Z,37.20
2024-01-11T20:44:12.664Z,28.63
2024-01-11T20:46:40.600Z,25.23
2024-01-11T20:49:08.571Z,26.70
2024-01-11T20:51:42.849Z,33.70
2024-01-11T20:54:10.735Z,26.73
2024-01-11T20:56:43.993Z,32.03
2024-01-11T20:59:12.744Z,24.58
2024-01-11T21:01:40.723Z,25.33
2024-01-11T21:04:08.578Z,25.52
2024-01-11T21:06:36.719Z,22.98
2024-01-11T21:09:07.478Z,23.98
2024-01-11T21:11:35.359Z,24.17
2024-01-11T22:16:08.587Z,27.23
2024-01-11T22:18:35.685Z,30.08
2024-01-11T22:21:02.957Z,31.17
2024-01-11T22:23:29.961Z,29.98
2024-01-11T22:25:56.654Z,42.80
2024-01-11T22:28:23.358Z,33.38
2024-01-11T22:30:50.069Z,33.88
2024-01-11T22:33:18.341Z,26.70
2024-01-11T22:35:45.139Z,29.98
2024-01-11T22:38:11.836Z,35.47
2024-01-11T22:40:38.925Z,36.10
2024-01-11T22:43:05.591Z,31.63
2024-01-11T22:45:34.943Z,36.53
2024-01-11T22:48:01.858Z,27.17
2024-01-11T22:50:30.085Z,35.30
2024-01-11T22:52:58.612Z,31.23
2024-01-11T22:55:25.764Z,35.92
2024-01-11T22:57:52.681Z,34.67
2024-01-11T23:00:23.286Z,33.75
2024-01-11T23:02:50.591Z,48.47
2024-01-11T23:05:18.606Z,35.28
2024-01-11T23:07:47.395Z,38.47
2024-01-11T23:10:14.753Z,37.53
2024-01-11T23:12:41.693Z,39.22
2024-01-11T23:15:10.303Z,40.08
2024-01-11T23:17:37.142Z,32.35
2024-01-11T23:20:07.926Z,37.15
2024-01-11T23:22:35.084Z,41.22
2024-01-11T23:25:03.479Z,35.28
2024-01-11T23:27:30.368Z,37.55
2024-01-11T23:29:57.240Z,38.15
2024-01-11T23:32:24.382Z,34.22
2024-01-11T23:34:51.206Z,38.42
2024-01-11T23:37:17.983Z,35.63
2024-01-11T23:39:44.756Z,32.30
2024-01-11T23:42:15.745Z,39.38
2024-01-11T23:44:42.585Z,35.92
2024-01-11T23:47:09.269Z,34.88
2024-01-11T23:49:36.073Z,36.78
2024-01-11T23:52:02.960Z,33.03
2024-01-11T23:54:29.826Z,33.58
2024-01-11T23:56:56.610Z,39.03
2024-01-11T23:59:24.963Z,40.65
